Airfield :
LOGIN :

Register | Disclaimer

   EN    FR    IT 

 










Legend :    VFR   Marginal VFR   IFR   Intensive IFR   Very Intensive IFR
Visi :
Ceiling :
>= 8 km
>= 3000ft
5 to 8 km
1000 to 3000 ft
1500m to 5 km
500 to 1000 ft
800 to 1500m
200 to 500 ft
< 800m
< 200 ft
Symbols :   Thunderstorms  Fog  Heavy snow  Heavy precipitations  Wind > 20 kt
SIGMETs :     Misc.  Thunderstorms  Icing  Turbulence  Mountain Waves  Volcanic Ashes






- Airport Elevation : 172 ft
- IATA code : LPI


ESSL - Saab

CURRENT METAR :
  • 180050Z AUTO 11003KT 3500 OVC070/// 03/03 Q1018

EXPIRED METARs :
  • 180020Z AUTO VRB01KT 0600 R11/P2000N R29/P2000N OVC068/// 03/03 Q1018
  • 172350Z AUTO 07002KT 0900 R11/P2000N R29/P2000N FG OVC070/// 02/02 Q1018
  • 172320Z 12002KT 2800 BR FEW012 03/03 Q1019
  • 172250Z 12003KT 3000 BR NSC 02/02 Q1019
  • 172220Z 00000KT 6000 NSC 03/03 Q1019

Expired Forecast.



MET'MAP, your aeronautical weather chart ! - Copyright ORBIFLY December 2007 - Disclaimer

ORBIFLY MET'MAP TEAM :

Programming & Development : Alexandra Zaïnal
Concept & Development : Baudouin d'Aumeries
Co-Development & Prog : Marc-Olivier Méhu
Technical & hardware support : Manuel Goepfert

Contact : metmap@orbifly.com




SOURCES & CREDITS :

   NOAA